Time;durP1;ratioP1;P1;durP2;ratioP2;P2;SDS_P1;SDS_P2;PMS_P1;PMS_P2;Temp;Humidity;BMP_temperature;BMP_pressure;BME280_temperature;BME280_humidity;BME280_pressure;Samples;Min_cycle;Max_cycle;Signal;HPM_P1;HPM_P2
2022/03/22 00:01:07;;;;;;;44.85;30.70;;;;;;;;;;5063358;28;20086;-30
2022/03/22 00:03:33;;;;;;;43.40;29.70;;;;;;;;;;5059019;28;20040;-30
2022/03/22 00:05:59;;;;;;;44.15;31.08;;;;;;;;;;5052025;28;20068;-33
2022/03/22 00:08:25;;;;;;;46.35;30.27;;;;;;;;;;5063447;28;20037;-34
2022/03/22 00:10:51;;;;;;;45.05;29.77;;;;;;;;;;5065308;28;20122;-32
2022/03/22 00:13:17;;;;;;;44.03;31.30;;;;;;;;;;5053734;28;20520;-29
2022/03/22 00:15:44;;;;;;;44.65;28.77;;;;;;;;;;5059524;28;20028;-32
2022/03/22 00:18:10;;;;;;;48.72;32.83;;;;;;;;;;5053582;28;20068;-29
2022/03/22 00:20:37;;;;;;;42.72;30.13;;;;;;;;;;5041016;28;20045;-29
2022/03/22 00:23:03;;;;;;;46.97;30.48;;;;;;;;;;5052256;28;20120;-29
2022/03/22 00:25:30;;;;;;;48.33;31.30;;;;;;;;;;5062960;28;20586;-30
2022/03/22 00:27:57;;;;;;;43.58;29.55;;;;;;;;;;5055414;28;20337;-30
2022/03/22 00:30:23;;;;;;;43.08;31.30;;;;;;;;;;5051297;28;20367;-26
2022/03/22 00:32:54;;;;;;;45.15;29.33;;;;;;;;;;5052295;28;20465;-27
2022/03/22 00:35:27;;;;;;;46.28;30.38;;;;;;;;;;5062312;28;20071;-25
2022/03/22 00:37:54;;;;;;;48.90;31.90;;;;;;;;;;5071646;28;20118;-26
2022/03/22 00:40:22;;;;;;;46.50;30.70;;;;;;;;;;5071982;28;20505;-26
2022/03/22 00:42:51;;;;;;;42.85;29.67;;;;;;;;;;5072088;28;20044;-26
2022/03/22 00:45:17;;;;;;;45.83;30.60;;;;;;;;;;5071847;28;20520;-25
2022/03/22 00:47:44;;;;;;;42.70;30.48;;;;;;;;;;5071664;28;20040;-27
2022/03/22 00:50:11;;;;;;;45.92;31.15;;;;;;;;;;5071696;28;20082;-26
2022/03/22 00:52:37;;;;;;;47.92;31.75;;;;;;;;;;5071585;28;20048;-26
2022/03/22 00:55:07;;;;;;;44.97;31.17;;;;;;;;;;5071164;28;20072;-26
2022/03/22 00:57:33;;;;;;;46.30;30.80;;;;;;;;;;5071740;28;20036;-25
2022/03/22 01:00:05;;;;;;;43.25;30.45;;;;;;;;;;5072196;28;20063;-28
2022/03/22 01:02:34;;;;;;;42.67;29.42;;;;;;;;;;5071758;28;20041;-25
2022/03/22 01:05:00;;;;;;;42.63;29.00;;;;;;;;;;5071707;28;20048;-26
2022/03/22 01:07:27;;;;;;;43.55;30.38;;;;;;;;;;5053288;28;20259;-25
2022/03/22 01:09:53;;;;;;;44.80;29.98;;;;;;;;;;5071566;28;20040;-25
2022/03/22 01:12:19;;;;;;;38.90;28.67;;;;;;;;;;5071676;28;20462;-27
2022/03/22 01:14:46;;;;;;;43.85;30.65;;;;;;;;;;5071935;28;20052;-25
2022/03/22 01:17:12;;;;;;;42.05;29.40;;;;;;;;;;5071563;28;20048;-27
2022/03/22 01:19:39;;;;;;;40.75;28.90;;;;;;;;;;5071066;28;20119;-26
2022/03/22 01:22:08;;;;;;;46.10;30.85;;;;;;;;;;5071396;28;20040;-27
2022/03/22 01:24:34;;;;;;;42.58;29.33;;;;;;;;;;5071637;28;20481;-25
2022/03/22 01:27:01;;;;;;;45.50;28.83;;;;;;;;;;5053375;28;20464;-25
2022/03/22 01:29:28;;;;;;;38.47;28.80;;;;;;;;;;5071250;28;20105;-27
2022/03/22 01:31:55;;;;;;;38.97;29.45;;;;;;;;;;5071175;28;20045;-25
2022/03/22 01:34:21;;;;;;;48.78;31.70;;;;;;;;;;5071472;28;20079;-26
2022/03/22 01:36:47;;;;;;;42.00;29.95;;;;;;;;;;5071407;28;20128;-27
2022/03/22 01:39:13;;;;;;;45.15;32.22;;;;;;;;;;5070977;28;20122;-26
2022/03/22 01:41:39;;;;;;;45.70;30.67;;;;;;;;;;5071635;28;20045;-25
2022/03/22 01:44:05;;;;;;;42.95;28.33;;;;;;;;;;5071425;28;20089;-27
2022/03/22 01:46:35;;;;;;;43.63;30.92;;;;;;;;;;5081677;28;20036;-26
2022/03/22 01:49:01;;;;;;;46.22;31.27;;;;;;;;;;5091376;28;20043;-26
2022/03/22 01:51:27;;;;;;;44.92;30.05;;;;;;;;;;5091451;28;20125;-26
2022/03/22 01:53:54;;;;;;;47.60;32.10;;;;;;;;;;5091608;28;20491;-25
2022/03/22 01:56:20;;;;;;;48.13;31.63;;;;;;;;;;5091543;28;20050;-26
2022/03/22 01:58:47;;;;;;;39.97;29.88;;;;;;;;;;5091166;28;20714;-26
2022/03/22 02:06:46;;;;;;;40.80;28.23;;;;;;;;;;5093312;28;20504;-26
2022/03/22 02:09:13;;;;;;;49.22;31.27;;;;;;;;;;5094968;28;20040;-26
2022/03/22 02:11:39;;;;;;;46.53;31.58;;;;;;;;;;5094630;28;20428;-28
2022/03/22 02:14:05;;;;;;;44.03;30.75;;;;;;;;;;5094718;28;20120;-26
2022/03/22 02:16:32;;;;;;;45.08;31.30;;;;;;;;;;5095112;28;20040;-25
2022/03/22 02:18:59;;;;;;;44.55;31.42;;;;;;;;;;5091037;28;20390;-33
2022/03/22 02:21:27;;;;;;;42.75;30.60;;;;;;;;;;5058462;28;20060;-30
2022/03/22 02:23:54;;;;;;;46.67;31.83;;;;;;;;;;5065345;28;20044;-31
2022/03/22 02:26:22;;;;;;;47.58;32.25;;;;;;;;;;5059703;28;20091;-31
2022/03/22 02:28:53;;;;;;;42.88;30.63;;;;;;;;;;5057849;28;20045;-28
2022/03/22 02:31:19;;;;;;;41.67;29.40;;;;;;;;;;5067555;28;20075;-28
2022/03/22 02:33:46;;;;;;;43.05;30.20;;;;;;;;;;5058746;28;20040;-30
2022/03/22 02:36:12;;;;;;;44.38;31.52;;;;;;;;;;5053752;28;20430;-31
2022/03/22 02:38:38;;;;;;;43.88;30.13;;;;;;;;;;5053552;28;20060;-32
2022/03/22 02:41:06;;;;;;;39.28;28.77;;;;;;;;;;5065244;28;20048;-28
2022/03/22 02:43:32;;;;;;;39.22;28.88;;;;;;;;;;5047942;28;20064;-31
2022/03/22 02:45:58;;;;;;;42.88;30.60;;;;;;;;;;5071298;28;20093;-29
2022/03/22 02:48:24;;;;;;;42.10;28.88;;;;;;;;;;5071333;28;20036;-31
2022/03/22 02:50:51;;;;;;;44.70;31.80;;;;;;;;;;5057789;28;20446;-28
2022/03/22 02:53:17;;;;;;;43.15;30.63;;;;;;;;;;5073962;28;20041;-25
2022/03/22 02:55:44;;;;;;;44.55;30.77;;;;;;;;;;5074027;28;20083;-25
2022/03/22 02:58:10;;;;;;;41.08;30.40;;;;;;;;;;5073380;28;20055;-28
2022/03/22 03:00:36;;;;;;;43.13;29.55;;;;;;;;;;5073661;28;20036;-25
2022/03/22 03:03:03;;;;;;;45.25;30.67;;;;;;;;;;5073293;28;20043;-26
2022/03/22 03:05:29;;;;;;;47.80;32.60;;;;;;;;;;5073654;28;20088;-25
2022/03/22 03:07:55;;;;;;;40.50;29.42;;;;;;;;;;5073607;28;20045;-25
2022/03/22 03:10:21;;;;;;;41.92;30.90;;;;;;;;;;5073868;28;20444;-27
2022/03/22 03:12:47;;;;;;;44.30;31.27;;;;;;;;;;5074010;28;20118;-27
2022/03/22 03:15:13;;;;;;;43.25;30.40;;;;;;;;;;5073123;28;20045;-27
2022/03/22 03:17:39;;;;;;;46.80;30.65;;;;;;;;;;5073044;28;20041;-26
2022/03/22 03:20:06;;;;;;;42.13;30.25;;;;;;;;;;5073407;28;20132;-25
2022/03/22 03:22:33;;;;;;;43.88;32.03;;;;;;;;;;5073614;28;20470;-25
2022/03/22 03:25:00;;;;;;;46.55;30.83;;;;;;;;;;5073776;28;20075;-26
2022/03/22 03:27:26;;;;;;;47.85;31.83;;;;;;;;;;5055420;28;20097;-27
2022/03/22 03:29:52;;;;;;;44.88;32.30;;;;;;;;;;5072754;28;20036;-25
2022/03/22 03:32:18;;;;;;;40.50;29.98;;;;;;;;;;5072885;28;20033;-26
2022/03/22 03:34:44;;;;;;;40.83;29.98;;;;;;;;;;5072895;28;20085;-25
2022/03/22 03:37:10;;;;;;;47.35;31.80;;;;;;;;;;5073268;28;20484;-25
2022/03/22 03:39:38;;;;;;;42.25;30.85;;;;;;;;;;5073808;28;20049;-26
2022/03/22 03:42:05;;;;;;;46.10;30.83;;;;;;;;;;5073013;28;20036;-25
2022/03/22 03:47:18;;;;;;;46.38;31.85;;;;;;;;;;5072621;28;20060;-25
2022/03/22 03:49:44;;;;;;;44.90;30.48;;;;;;;;;;5072857;28;20527;-25
2022/03/22 03:52:11;;;;;;;47.25;32.67;;;;;;;;;;5072305;28;20040;-26
2022/03/22 03:54:38;;;;;;;44.85;31.55;;;;;;;;;;5072387;28;20045;-26
2022/03/22 03:57:04;;;;;;;43.65;30.70;;;;;;;;;;5072305;28;20043;-26
2022/03/22 03:59:30;;;;;;;46.63;33.08;;;;;;;;;;5072339;28;20525;-27
2022/03/22 04:01:57;;;;;;;46.92;32.85;;;;;;;;;;5072445;28;20063;-26
2022/03/22 04:04:23;;;;;;;42.25;30.98;;;;;;;;;;5072790;28;20071;-26
2022/03/22 04:06:49;;;;;;;45.95;31.15;;;;;;;;;;5072496;28;20120;-27
2022/03/22 04:09:15;;;;;;;43.60;31.40;;;;;;;;;;5071896;28;20123;-26
2022/03/22 04:11:42;;;;;;;48.72;31.70;;;;;;;;;;5072759;28;20045;-25
2022/03/22 04:14:08;;;;;;;46.72;33.55;;;;;;;;;;5072115;28;20040;-26
2022/03/22 04:16:36;;;;;;;44.35;31.30;;;;;;;;;;5072182;28;20123;-27
2022/03/22 04:19:04;;;;;;;47.17;31.98;;;;;;;;;;5072134;28;20053;-25
2022/03/22 04:21:30;;;;;;;45.78;31.58;;;;;;;;;;5072498;28;20055;-26
2022/03/22 04:23:58;;;;;;;41.20;29.55;;;;;;;;;;5072116;28;20071;-28
2022/03/22 04:26:24;;;;;;;42.58;29.73;;;;;;;;;;5072416;28;20043;-26
2022/03/22 04:34:20;;;;;;;46.72;32.47;;;;;;;;;;5071864;28;20093;-26
2022/03/22 04:36:55;;;;;;;45.20;31.95;;;;;;;;;;5072020;28;20055;-26
2022/03/22 04:39:22;;;;;;;44.20;30.52;;;;;;;;;;5053643;28;20044;-25
2022/03/22 04:41:49;;;;;;;45.50;31.13;;;;;;;;;;5035212;28;20071;-27
2022/03/22 04:44:16;;;;;;;45.25;32.17;;;;;;;;;;5052189;28;20379;-26
2022/03/22 04:46:43;;;;;;;43.88;31.77;;;;;;;;;;5051891;28;20488;-26
2022/03/22 04:49:09;;;;;;;44.00;30.85;;;;;;;;;;5051791;28;20051;-26
2022/03/22 04:57:05;;;;;;;48.00;33.75;;;;;;;;;;5051768;28;20045;-26
2022/03/22 04:59:31;;;;;;;45.92;32.53;;;;;;;;;;5051999;28;20037;-28
2022/03/22 05:01:57;;;;;;;44.22;31.75;;;;;;;;;;5051892;28;20124;-26
2022/03/22 05:04:23;;;;;;;49.38;32.55;;;;;;;;;;5051408;28;20041;-25
2022/03/22 05:06:49;;;;;;;47.67;32.80;;;;;;;;;;5051939;28;20037;-27
2022/03/22 05:09:15;;;;;;;49.63;32.72;;;;;;;;;;5051905;28;20068;-26
2022/03/22 05:11:41;;;;;;;44.75;32.53;;;;;;;;;;5051370;28;20044;-27
2022/03/22 05:14:08;;;;;;;45.42;31.73;;;;;;;;;;5051545;28;20716;-26
2022/03/22 05:16:35;;;;;;;46.40;32.35;;;;;;;;;;5051921;28;20121;-27
2022/03/22 05:19:01;;;;;;;47.67;32.88;;;;;;;;;;5051746;28;20041;-25
2022/03/22 05:21:28;;;;;;;45.72;32.28;;;;;;;;;;5033864;28;20406;-26
2022/03/22 05:23:54;;;;;;;46.13;31.98;;;;;;;;;;5051506;28;20041;-26
2022/03/22 05:26:20;;;;;;;51.80;34.20;;;;;;;;;;5051427;28;20033;-27
2022/03/22 05:28:47;;;;;;;36.88;27.88;;;;;;;;;;5051382;28;20040;-27
2022/03/22 05:31:14;;;;;;;46.33;30.77;;;;;;;;;;5051290;28;20052;-27
2022/03/22 05:33:41;;;;;;;42.78;31.17;;;;;;;;;;5051112;28;20090;-26
2022/03/22 05:36:08;;;;;;;45.10;31.33;;;;;;;;;;5051591;28;20045;-27
2022/03/22 05:38:34;;;;;;;46.95;32.85;;;;;;;;;;5050976;28;20064;-27
2022/03/22 05:41:03;;;;;;;45.90;33.00;;;;;;;;;;5053841;28;20041;-26
2022/03/22 05:43:30;;;;;;;47.00;31.58;;;;;;;;;;5055296;28;20041;-26
2022/03/22 05:45:56;;;;;;;46.67;32.55;;;;;;;;;;5055087;28;20037;-26
2022/03/22 05:48:23;;;;;;;51.10;32.72;;;;;;;;;;5055149;28;20047;-27
2022/03/22 05:50:49;;;;;;;52.10;34.85;;;;;;;;;;5055229;28;20052;-27
2022/03/22 05:53:16;;;;;;;51.70;34.58;;;;;;;;;;5055744;28;20041;-26
2022/03/22 05:55:42;;;;;;;50.42;33.80;;;;;;;;;;5055598;28;20045;-28
2022/03/22 05:58:09;;;;;;;48.40;32.55;;;;;;;;;;5055112;28;20402;-27
2022/03/22 06:00:35;;;;;;;48.67;33.10;;;;;;;;;;5054713;28;20068;-26
2022/03/22 06:03:02;;;;;;;54.05;33.80;;;;;;;;;;5054897;28;20453;-27
2022/03/22 06:05:28;;;;;;;52.72;35.30;;;;;;;;;;5054579;28;20041;-28
2022/03/22 06:07:55;;;;;;;52.10;34.10;;;;;;;;;;5054944;28;20095;-28
2022/03/22 06:10:22;;;;;;;51.58;36.00;;;;;;;;;;5054694;28;20041;-26
2022/03/22 06:12:51;;;;;;;50.47;34.65;;;;;;;;;;5054897;28;20048;-27
2022/03/22 06:15:21;;;;;;;49.72;32.80;;;;;;;;;;5054274;28;20076;-27
2022/03/22 06:17:49;;;;;;;45.92;31.92;;;;;;;;;;5054582;28;20045;-27
2022/03/22 06:20:17;;;;;;;52.88;33.78;;;;;;;;;;5054206;28;20170;-28
2022/03/22 06:22:43;;;;;;;43.25;30.73;;;;;;;;;;5054253;28;20048;-28
2022/03/22 06:25:10;;;;;;;42.55;32.65;;;;;;;;;;5054570;28;20406;-28
2022/03/22 06:27:36;;;;;;;47.03;32.88;;;;;;;;;;5074312;28;20571;-27
2022/03/22 06:30:06;;;;;;;46.47;31.48;;;;;;;;;;5074597;28;20037;-28
2022/03/22 06:32:40;;;;;;;44.40;32.58;;;;;;;;;;5074811;28;20089;-29
2022/03/22 06:35:06;;;;;;;53.53;33.88;;;;;;;;;;5056574;28;20310;-27
2022/03/22 06:37:32;;;;;;;45.08;32.28;;;;;;;;;;5074233;28;20044;-27
2022/03/22 06:39:58;;;;;;;49.53;31.50;;;;;;;;;;5073856;28;20075;-27
2022/03/22 06:42:24;;;;;;;44.15;31.60;;;;;;;;;;5074124;28;20037;-28
2022/03/22 06:44:50;;;;;;;44.85;30.77;;;;;;;;;;5074162;28;20037;-27
2022/03/22 06:47:16;;;;;;;50.70;31.90;;;;;;;;;;5074217;28;20040;-30
2022/03/22 06:49:43;;;;;;;47.03;30.65;;;;;;;;;;5074190;28;20067;-27
2022/03/22 06:52:10;;;;;;;44.72;30.77;;;;;;;;;;5073168;28;20051;-27
2022/03/22 06:54:37;;;;;;;41.42;29.55;;;;;;;;;;5073864;28;20068;-30
2022/03/22 06:57:03;;;;;;;46.25;31.33;;;;;;;;;;5073823;28;20559;-25
2022/03/22 06:59:29;;;;;;;42.80;30.35;;;;;;;;;;5073595;28;20041;-26
2022/03/22 07:01:55;;;;;;;43.08;29.40;;;;;;;;;;5073343;28;20046;-26
2022/03/22 07:04:21;;;;;;;45.90;30.13;;;;;;;;;;5073808;28;20065;-26
2022/03/22 07:06:47;;;;;;;43.97;30.80;;;;;;;;;;5073695;28;20549;-25
2022/03/22 07:09:13;;;;;;;40.63;29.15;;;;;;;;;;5073632;28;20105;-27
2022/03/22 07:11:52;;;;;;;45.10;30.25;;;;;;;;;;5073720;28;20040;-28
2022/03/22 07:14:19;;;;;;;42.92;30.63;;;;;;;;;;5074300;28;20087;-27
2022/03/22 07:16:49;;;;;;;43.70;29.55;;;;;;;;;;5074069;28;20049;-27
2022/03/22 07:19:15;;;;;;;47.53;32.60;;;;;;;;;;5073433;28;20330;-28
2022/03/22 07:21:42;;;;;;;38.67;30.48;;;;;;;;;;5055382;28;20036;-27
2022/03/22 07:24:09;;;;;;;39.40;28.25;;;;;;;;;;5073376;28;20150;-28
2022/03/22 07:26:35;;;;;;;44.03;30.23;;;;;;;;;;5073396;28;20040;-28
2022/03/22 07:29:01;;;;;;;41.00;28.55;;;;;;;;;;5072722;28;20151;-28
2022/03/22 07:31:27;;;;;;;43.13;30.52;;;;;;;;;;5071208;28;20048;-26
2022/03/22 07:33:53;;;;;;;42.67;29.52;;;;;;;;;;5072969;28;20303;-26
2022/03/22 07:36:20;;;;;;;43.38;28.92;;;;;;;;;;5073098;28;20098;-27
2022/03/22 07:38:47;;;;;;;40.20;27.85;;;;;;;;;;5072685;28;20041;-27
2022/03/22 07:41:13;;;;;;;41.15;27.95;;;;;;;;;;5055017;28;20401;-26
2022/03/22 07:43:41;;;;;;;40.95;28.88;;;;;;;;;;5072607;28;20086;-25
2022/03/22 07:46:07;;;;;;;40.83;29.00;;;;;;;;;;5073079;28;20064;-26
2022/03/22 07:48:34;;;;;;;39.90;27.27;;;;;;;;;;5073017;28;20064;-28
2022/03/22 07:53:45;;;;;;;41.95;28.23;;;;;;;;;;5073101;28;20053;-27
2022/03/22 07:56:12;;;;;;;41.60;29.33;;;;;;;;;;5072644;28;20075;-29
2022/03/22 07:58:38;;;;;;;37.13;28.20;;;;;;;;;;5072908;28;20509;-27
2022/03/22 08:01:04;;;;;;;39.22;27.98;;;;;;;;;;5072539;28;20047;-27
2022/03/22 08:03:30;;;;;;;39.72;26.83;;;;;;;;;;5072512;28;20079;-26
2022/03/22 08:05:56;;;;;;;37.95;27.67;;;;;;;;;;5038300;28;20041;-28
2022/03/22 08:08:22;;;;;;;33.97;25.75;;;;;;;;;;5073036;28;20127;-27
2022/03/22 08:10:48;;;;;;;38.10;27.38;;;;;;;;;;5072852;28;20478;-26
2022/03/22 08:13:15;;;;;;;39.45;26.70;;;;;;;;;;5072875;28;20044;-26
2022/03/22 08:15:41;;;;;;;36.30;27.67;;;;;;;;;;5072612;28;20283;-27
2022/03/22 08:18:09;;;;;;;37.17;26.92;;;;;;;;;;5073202;28;20490;-27
2022/03/22 08:20:36;;;;;;;37.13;26.50;;;;;;;;;;5073312;28;20079;-27
2022/03/22 08:23:04;;;;;;;33.25;25.17;;;;;;;;;;5072758;28;20041;-28
2022/03/22 08:25:33;;;;;;;34.40;26.08;;;;;;;;;;5070387;28;20040;-27
2022/03/22 08:28:00;;;;;;;35.25;25.67;;;;;;;;;;5052686;28;20043;-28
2022/03/22 08:30:26;;;;;;;36.17;26.25;;;;;;;;;;5065827;28;20115;-29
2022/03/22 08:32:58;;;;;;;33.88;26.67;;;;;;;;;;5072743;28;20101;-28
2022/03/22 08:35:24;;;;;;;34.10;27.20;;;;;;;;;;5072663;28;20159;-28
2022/03/22 08:37:51;;;;;;;30.45;24.40;;;;;;;;;;5054413;28;20036;-27
2022/03/22 08:40:17;;;;;;;31.70;25.00;;;;;;;;;;5072370;28;20044;-27
2022/03/22 08:42:44;;;;;;;29.70;24.80;;;;;;;;;;5071951;28;20393;-28
2022/03/22 08:45:14;;;;;;;35.40;25.42;;;;;;;;;;5066324;28;20069;-28
2022/03/22 08:47:41;;;;;;;35.92;25.48;;;;;;;;;;5052347;28;20071;-30
2022/03/22 08:50:09;;;;;;;31.52;23.67;;;;;;;;;;5052366;28;20045;-30
2022/03/22 08:52:36;;;;;;;30.40;24.33;;;;;;;;;;5053076;28;20037;-29
2022/03/22 08:55:02;;;;;;;30.70;25.08;;;;;;;;;;5052711;28;20048;-28
2022/03/22 08:57:29;;;;;;;30.52;24.67;;;;;;;;;;5052784;28;20079;-28
2022/03/22 08:59:55;;;;;;;30.35;23.60;;;;;;;;;;5052044;28;20072;-28
2022/03/22 09:02:21;;;;;;;30.77;24.42;;;;;;;;;;5052122;28;20044;-29
2022/03/22 09:07:31;;;;;;;27.77;23.48;;;;;;;;;;5051677;28;20506;-29
2022/03/22 09:09:57;;;;;;;31.88;25.23;;;;;;;;;;5052070;28;20040;-28
2022/03/22 09:12:24;;;;;;;33.30;25.17;;;;;;;;;;5051694;28;20045;-28
2022/03/22 09:14:53;;;;;;;30.83;25.25;;;;;;;;;;5071347;28;20508;-28
2022/03/22 09:17:19;;;;;;;33.97;25.30;;;;;;;;;;5076097;28;20048;-28
2022/03/22 09:19:45;;;;;;;27.45;24.33;;;;;;;;;;5075868;28;20040;-28
2022/03/22 09:22:11;;;;;;;29.02;23.67;;;;;;;;;;5076266;28;20029;-29
2022/03/22 09:24:37;;;;;;;29.17;24.23;;;;;;;;;;5076220;28;20454;-28
2022/03/22 09:27:04;;;;;;;28.55;23.80;;;;;;;;;;5075854;28;20036;-28
2022/03/22 09:29:30;;;;;;;29.67;24.55;;;;;;;;;;5075826;28;20072;-28
2022/03/22 09:31:56;;;;;;;31.23;24.92;;;;;;;;;;5057757;28;20050;-29
2022/03/22 09:34:24;;;;;;;28.75;24.75;;;;;;;;;;5076004;28;20040;-29
2022/03/22 09:36:51;;;;;;;28.08;24.85;;;;;;;;;;5075912;28;20101;-30
2022/03/22 09:39:19;;;;;;;27.40;24.17;;;;;;;;;;5075016;28;20056;-28
2022/03/22 09:41:45;;;;;;;31.27;27.05;;;;;;;;;;5075450;28;20075;-31
2022/03/22 09:44:11;;;;;;;28.10;23.83;;;;;;;;;;5075749;28;20073;-30
2022/03/22 09:46:37;;;;;;;28.10;24.60;;;;;;;;;;5075744;28;20041;-30
2022/03/22 09:49:03;;;;;;;28.17;24.63;;;;;;;;;;5075380;28;20045;-29
2022/03/22 09:51:45;;;;;;;28.00;24.35;;;;;;;;;;5075079;28;20040;-29
2022/03/22 09:54:15;;;;;;;27.25;24.35;;;;;;;;;;5075356;28;20478;-29
2022/03/22 09:56:42;;;;;;;28.98;24.50;;;;;;;;;;5075159;28;20048;-30
2022/03/22 09:59:09;;;;;;;26.13;23.30;;;;;;;;;;5074758;28;20037;-29
2022/03/22 10:01:35;;;;;;;27.17;24.25;;;;;;;;;;5075053;28;20416;-28
2022/03/22 10:04:03;;;;;;;27.50;24.02;;;;;;;;;;5075285;28;20054;-28
2022/03/22 10:06:30;;;;;;;26.92;24.13;;;;;;;;;;5074802;28;20174;-28
2022/03/22 10:08:56;;;;;;;30.15;25.02;;;;;;;;;;5074907;28;20375;-28
2022/03/22 10:11:22;;;;;;;28.58;25.42;;;;;;;;;;5074774;28;20094;-28
2022/03/22 10:13:55;;;;;;;27.67;24.60;;;;;;;;;;5069049;28;20056;-28
2022/03/22 10:16:22;;;;;;;27.95;23.38;;;;;;;;;;5054713;28;20076;-28
2022/03/22 10:18:48;;;;;;;27.90;24.15;;;;;;;;;;5054549;28;20513;-28
2022/03/22 10:21:14;;;;;;;26.52;23.63;;;;;;;;;;5054647;28;20052;-28
2022/03/22 10:23:49;;;;;;;28.10;23.27;;;;;;;;;;5062390;28;20064;-28
2022/03/22 10:26:15;;;;;;;28.55;25.05;;;;;;;;;;5073329;28;20202;-29
2022/03/22 10:28:52;;;;;;;29.25;24.35;;;;;;;;;;5074327;28;20110;-29
2022/03/22 10:31:19;;;;;;;27.45;23.45;;;;;;;;;;5070013;28;20033;-28
2022/03/22 10:33:50;;;;;;;28.92;24.27;;;;;;;;;;5054236;28;20072;-29
2022/03/22 10:36:16;;;;;;;25.58;22.80;;;;;;;;;;5055307;28;20052;-28
2022/03/22 10:38:52;;;;;;;27.27;23.90;;;;;;;;;;5074057;28;20045;-29
2022/03/22 10:41:24;;;;;;;27.20;22.20;;;;;;;;;;5074612;28;20449;-29
2022/03/22 10:44:00;;;;;;;28.05;24.48;;;;;;;;;;5074183;28;20045;-29
2022/03/22 10:46:27;;;;;;;26.02;22.52;;;;;;;;;;5074485;28;20036;-29
2022/03/22 10:49:00;;;;;;;29.05;24.05;;;;;;;;;;5073839;28;20051;-29
2022/03/22 10:51:32;;;;;;;28.55;23.77;;;;;;;;;;5073346;28;20072;-30
2022/03/22 10:53:58;;;;;;;26.98;22.77;;;;;;;;;;5072153;28;20050;-29
2022/03/22 10:56:26;;;;;;;27.25;24.05;;;;;;;;;;5073480;28;20428;-30
2022/03/22 10:58:55;;;;;;;28.13;22.90;;;;;;;;;;5055749;28;20131;-31
2022/03/22 11:01:22;;;;;;;29.80;24.67;;;;;;;;;;5073548;28;20379;-28
2022/03/22 11:03:48;;;;;;;26.95;24.17;;;;;;;;;;5056905;28;20074;-29
2022/03/22 11:06:15;;;;;;;25.30;22.60;;;;;;;;;;5074050;28;20162;-29
2022/03/22 11:08:41;;;;;;;25.58;22.75;;;;;;;;;;5093784;28;20043;-29
2022/03/22 11:11:07;;;;;;;24.95;22.45;;;;;;;;;;5085156;28;20083;-29
2022/03/22 11:13:34;;;;;;;27.55;24.60;;;;;;;;;;5093465;28;20048;-28
2022/03/22 11:16:01;;;;;;;27.35;23.77;;;;;;;;;;5093517;28;20114;-29
2022/03/22 11:18:28;;;;;;;26.17;23.55;;;;;;;;;;5093444;28;20097;-29
2022/03/22 11:20:58;;;;;;;26.20;23.45;;;;;;;;;;5093590;28;20040;-29
2022/03/22 11:23:26;;;;;;;25.27;22.58;;;;;;;;;;5093485;28;20044;-30
2022/03/22 11:25:52;;;;;;;26.80;23.85;;;;;;;;;;5093533;28;20044;-30
2022/03/22 11:28:22;;;;;;;26.65;23.85;;;;;;;;;;5075191;28;20097;-29
2022/03/22 11:30:49;;;;;;;29.13;24.13;;;;;;;;;;5093359;28;20048;-29
2022/03/22 11:36:12;;;;;;;26.88;23.90;;;;;;;;;;5092994;28;20050;-30
2022/03/22 11:38:55;;;;;;;25.95;23.23;;;;;;;;;;5057565;28;20520;-29
2022/03/22 11:44:15;;;;;;;24.38;21.63;;;;;;;;;;5093243;28;20089;-28
2022/03/22 11:46:42;;;;;;;27.10;22.95;;;;;;;;;;5092717;28;20036;-30
2022/03/22 11:49:16;;;;;;;26.77;23.35;;;;;;;;;;5093078;28;20071;-29
2022/03/22 11:51:49;;;;;;;29.00;24.17;;;;;;;;;;5093405;28;20077;-31
2022/03/22 11:54:15;;;;;;;25.98;22.88;;;;;;;;;;5093067;28;20481;-30
2022/03/22 11:56:48;;;;;;;25.42;22.63;;;;;;;;;;5093351;28;20564;-28
2022/03/22 11:59:16;;;;;;;27.48;22.80;;;;;;;;;;5092410;28;20072;-30
2022/03/22 12:01:53;;;;;;;25.90;23.20;;;;;;;;;;5083164;28;20043;-30
2022/03/22 12:04:21;;;;;;;25.35;22.42;;;;;;;;;;5072336;28;20485;-30
2022/03/22 12:06:47;;;;;;;26.48;23.63;;;;;;;;;;5072324;28;20080;-29
2022/03/22 12:09:13;;;;;;;25.55;23.05;;;;;;;;;;5071781;28;20040;-29
2022/03/22 12:11:48;;;;;;;25.80;23.25;;;;;;;;;;5072238;28;20037;-31
2022/03/22 12:14:26;;;;;;;25.80;22.38;;;;;;;;;;5071816;28;20055;-28
2022/03/22 12:16:53;;;;;;;25.02;22.10;;;;;;;;;;5071709;28;20048;-28
2022/03/22 12:19:30;;;;;;;24.02;21.52;;;;;;;;;;5071551;28;20041;-28
2022/03/22 12:21:56;;;;;;;24.88;22.05;;;;;;;;;;5071694;28;20090;-29
2022/03/22 12:24:24;;;;;;;28.42;23.23;;;;;;;;;;5072046;28;20037;-31
2022/03/22 12:26:50;;;;;;;25.20;22.50;;;;;;;;;;5072148;28;20044;-29
2022/03/22 12:29:17;;;;;;;24.50;21.90;;;;;;;;;;5072022;28;20052;-30
2022/03/22 12:31:50;;;;;;;25.13;22.40;;;;;;;;;;5072212;28;20036;-29
2022/03/22 12:34:16;;;;;;;24.10;21.50;;;;;;;;;;5061953;28;20041;-30
2022/03/22 12:36:42;;;;;;;21.70;19.40;;;;;;;;;;5051892;28;20102;-30
2022/03/22 12:39:09;;;;;;;20.77;18.20;;;;;;;;;;5051183;28;20044;-31
2022/03/22 12:41:35;;;;;;;22.77;20.45;;;;;;;;;;5051460;28;20544;-30
2022/03/22 12:44:01;;;;;;;22.88;19.77;;;;;;;;;;5051654;28;20386;-30
2022/03/22 12:46:28;;;;;;;23.30;20.80;;;;;;;;;;5059378;28;20044;-31
2022/03/22 12:48:55;;;;;;;21.92;19.63;;;;;;;;;;5053585;28;20517;-29
2022/03/22 12:51:25;;;;;;;21.10;18.40;;;;;;;;;;5070977;28;20087;-30
2022/03/22 12:53:55;;;;;;;19.13;17.05;;;;;;;;;;5071339;28;20047;-30
2022/03/22 12:56:21;;;;;;;20.17;17.90;;;;;;;;;;5071289;28;20041;-30
2022/03/22 12:58:49;;;;;;;21.50;18.33;;;;;;;;;;5070899;28;20055;-29
2022/03/22 13:01:15;;;;;;;20.55;18.17;;;;;;;;;;5072180;28;20036;-29
2022/03/22 13:03:42;;;;;;;20.58;17.67;;;;;;;;;;5055401;28;20032;-29
2022/03/22 13:06:08;;;;;;;22.88;19.45;;;;;;;;;;5051193;28;20041;-29
2022/03/22 13:11:27;;;;;;;24.55;20.15;;;;;;;;;;5054708;28;20075;-29
2022/03/22 13:16:37;;;;;;;24.98;19.73;;;;;;;;;;5070907;28;19927;-30
2022/03/22 13:19:05;;;;;;;22.42;19.15;;;;;;;;;;5054065;28;20044;-31
2022/03/22 13:21:35;;;;;;;22.33;19.00;;;;;;;;;;5071253;28;20036;-30
2022/03/22 13:24:08;;;;;;;21.23;18.80;;;;;;;;;;5063688;28;20327;-30
2022/03/22 13:26:39;;;;;;;21.40;19.10;;;;;;;;;;5051135;28;20102;-30
2022/03/22 13:29:15;;;;;;;22.65;19.45;;;;;;;;;;5051081;28;20116;-29
2022/03/22 13:31:57;;;;;;;24.73;19.35;;;;;;;;;;5053901;28;20040;-29
2022/03/22 13:34:24;;;;;;;23.98;19.17;;;;;;;;;;5050907;28;20052;-30
2022/03/22 13:36:51;;;;;;;22.15;19.85;;;;;;;;;;5052924;28;20079;-29
2022/03/22 13:39:24;;;;;;;22.38;19.25;;;;;;;;;;5071085;28;20044;-29
2022/03/22 13:41:50;;;;;;;21.42;18.52;;;;;;;;;;5058775;28;20360;-29
2022/03/22 13:44:28;;;;;;;22.17;19.77;;;;;;;;;;5064994;28;20112;-30
2022/03/22 13:46:59;;;;;;;24.92;19.20;;;;;;;;;;5079170;28;20083;-29
2022/03/22 13:49:33;;;;;;;24.60;20.42;;;;;;;;;;5070577;28;20052;-30
2022/03/22 13:52:00;;;;;;;25.30;19.23;;;;;;;;;;5058702;28;20090;-29
2022/03/22 13:54:26;;;;;;;22.25;19.13;;;;;;;;;;5051174;28;20037;-29
2022/03/22 13:56:55;;;;;;;21.65;18.85;;;;;;;;;;5051281;28;20040;-29
2022/03/22 13:59:24;;;;;;;21.70;18.02;;;;;;;;;;5051146;28;20056;-28
2022/03/22 14:01:52;;;;;;;22.80;18.73;;;;;;;;;;5052891;28;20045;-29
2022/03/22 14:04:18;;;;;;;20.60;18.48;;;;;;;;;;5054577;28;20095;-30
2022/03/22 14:06:44;;;;;;;21.88;18.92;;;;;;;;;;5087491;28;20412;-30
2022/03/22 14:09:10;;;;;;;25.20;20.02;;;;;;;;;;5076119;28;20044;-29
2022/03/22 14:11:37;;;;;;;20.83;18.48;;;;;;;;;;5074415;28;20545;-29
2022/03/22 14:14:03;;;;;;;19.92;17.60;;;;;;;;;;5066360;28;20045;-28
2022/03/22 14:16:29;;;;;;;21.95;18.75;;;;;;;;;;5054283;28;20111;-29
2022/03/22 14:18:55;;;;;;;24.65;19.35;;;;;;;;;;5066177;28;20040;-28
2022/03/22 14:21:21;;;;;;;21.42;18.33;;;;;;;;;;5093329;28;20058;-29
2022/03/22 14:23:48;;;;;;;19.65;17.52;;;;;;;;;;5074360;28;20047;-29
2022/03/22 14:26:14;;;;;;;23.83;20.00;;;;;;;;;;5074331;28;20083;-28
2022/03/22 14:28:40;;;;;;;20.45;18.40;;;;;;;;;;5056056;28;20079;-29
2022/03/22 14:31:06;;;;;;;22.80;19.55;;;;;;;;;;5074622;28;20461;-30
2022/03/22 14:33:32;;;;;;;22.38;19.23;;;;;;;;;;5074041;28;20589;-29
2022/03/22 14:35:58;;;;;;;23.02;19.38;;;;;;;;;;5054058;28;20059;-28
2022/03/22 14:38:26;;;;;;;21.23;18.88;;;;;;;;;;5066318;28;20049;-29
2022/03/22 14:40:53;;;;;;;21.75;18.58;;;;;;;;;;5055645;28;20048;-29
2022/03/22 14:43:21;;;;;;;21.27;18.63;;;;;;;;;;5070519;28;20588;-28
2022/03/22 14:45:50;;;;;;;22.45;18.65;;;;;;;;;;5066364;28;20048;-29
2022/03/22 14:48:18;;;;;;;22.15;18.67;;;;;;;;;;5073519;28;20047;-29
2022/03/22 14:50:45;;;;;;;20.25;18.13;;;;;;;;;;5073986;28;20056;-28
2022/03/22 14:58:47;;;;;;;19.55;17.55;;;;;;;;;;5053574;28;20045;-29